createdAt,value
2019-02-27T00:00:27.945Z,79.40
2019-02-27T00:02:56.717Z,99.43
2019-02-27T00:05:25.157Z,138.73
2019-02-27T00:07:54.829Z,90.03
2019-02-27T00:10:23.549Z,81.17
2019-02-27T00:12:52.535Z,71.77
2019-02-27T00:15:21.272Z,82.20
2019-02-27T00:17:51.526Z,78.60
2019-02-27T00:20:20.657Z,84.50
2019-02-27T00:22:50.656Z,83.00
2019-02-27T00:25:19.223Z,86.70
2019-02-27T00:27:49.306Z,79.07
2019-02-27T00:30:18.617Z,81.10
2019-02-27T00:32:50.998Z,77.47
2019-02-27T00:35:17.152Z,93.93
2019-02-27T00:37:45.574Z,76.53
2019-02-27T00:40:14.216Z,77.53
2019-02-27T00:42:42.682Z,80.10
2019-02-27T00:45:12.014Z,78.10
2019-02-27T00:47:40.618Z,78.83
2019-02-27T00:50:09.877Z,86.90
2019-02-27T00:52:38.308Z,78.27
2019-02-27T00:55:07.869Z,77.90
2019-02-27T00:57:36.537Z,80.00
2019-02-27T01:00:10.839Z,86.03
2019-02-27T01:02:39.248Z,76.90
2019-02-27T01:05:09.154Z,85.53
2019-02-27T01:07:37.864Z,73.10
2019-02-27T01:10:12.013Z,77.70
2019-02-27T01:12:40.192Z,80.03
2019-02-27T01:15:13.643Z,82.27
2019-02-27T01:17:43.244Z,87.10
2019-02-27T01:20:15.601Z,87.20
2019-02-27T01:22:45.121Z,74.10
2019-02-27T01:25:13.613Z,83.30
2019-02-27T01:27:42.009Z,85.67
2019-02-27T01:30:17.421Z,86.63
2019-02-27T01:32:45.833Z,82.13
2019-02-27T01:35:17.880Z,84.40
2019-02-27T01:37:45.160Z,90.60
2019-02-27T01:40:18.044Z,88.97
2019-02-27T01:42:46.840Z,80.60
2019-02-27T01:45:20.588Z,76.40
2019-02-27T01:47:46.358Z,72.20
2019-02-27T01:50:32.190Z,70.40
2019-02-27T01:53:01.039Z,80.93
2019-02-27T01:55:29.441Z,75.13
2019-02-27T01:57:57.847Z,87.20
2019-02-27T02:00:26.626Z,73.97
2019-02-27T02:02:55.386Z,73.00
2019-02-27T02:05:27.173Z,83.10
2019-02-27T02:07:55.752Z,69.03
2019-02-27T02:10:28.100Z,81.87
2019-02-27T02:13:00.241Z,75.27
2019-02-27T02:15:34.276Z,81.50
2019-02-27T02:18:25.209Z,84.43
2019-02-27T02:21:01.645Z,78.10
2019-02-27T02:23:52.265Z,82.13
2019-02-27T02:26:35.658Z,83.57
2019-02-27T02:29:20.369Z,81.97
2019-02-27T02:32:01.199Z,76.70
2019-02-27T02:34:39.891Z,77.27
2019-02-27T02:37:41.772Z,75.87
2019-02-27T02:40:22.155Z,75.17
2019-02-27T02:43:13.976Z,77.60
2019-02-27T02:45:54.459Z,74.90
2019-02-27T02:48:32.095Z,78.70
2019-02-27T02:51:14.794Z,81.73
2019-02-27T02:54:00.107Z,68.40
2019-02-27T02:56:30.969Z,84.73
2019-02-27T02:59:30.456Z,72.50
2019-02-27T03:02:23.441Z,77.90
2019-02-27T03:05:16.435Z,73.20
2019-02-27T03:08:05.493Z,72.97
2019-02-27T03:10:51.973Z,73.63
2019-02-27T03:13:41.627Z,80.60
2019-02-27T03:16:11.664Z,80.70
2019-02-27T03:19:05.045Z,73.47
2019-02-27T03:21:37.266Z,75.77
2019-02-27T03:24:08.766Z,70.03
2019-02-27T03:26:40.396Z,84.07
2019-02-27T03:29:23.705Z,67.80
2019-02-27T03:32:14.734Z,75.10
2019-02-27T03:35:11.434Z,74.77
2019-02-27T03:37:54.937Z,72.70
2019-02-27T03:40:50.729Z,75.83
2019-02-27T03:43:45.689Z,69.43
2019-02-27T03:46:30.542Z,78.80
2019-02-27T03:49:11.086Z,70.40
2019-02-27T03:52:11.262Z,70.30
2019-02-27T03:54:48.346Z,72.33
2019-02-27T03:57:24.445Z,81.57
2019-02-27T04:00:19.730Z,84.83
2019-02-27T04:02:56.995Z,72.80
2019-02-27T04:05:46.388Z,83.67
2019-02-27T04:08:50.954Z,82.17
2019-02-27T04:11:19.413Z,79.27
2019-02-27T04:13:47.838Z,73.53
2019-02-27T04:16:16.242Z,77.50
2019-02-27T04:18:44.798Z,88.03
2019-02-27T04:21:13.202Z,69.97
2019-02-27T04:23:47.986Z,91.30
2019-02-27T04:26:11.787Z,78.67
2019-02-27T04:28:40.198Z,77.57
2019-02-27T04:31:08.606Z,80.33
2019-02-27T04:33:37.044Z,71.23
2019-02-27T04:36:05.440Z,77.73
2019-02-27T04:38:33.843Z,73.93
2019-02-27T04:41:02.266Z,74.97
2019-02-27T04:43:32.164Z,73.50
2019-02-27T04:46:01.044Z,75.20
2019-02-27T04:48:29.908Z,78.10
2019-02-27T04:50:59.025Z,76.10
2019-02-27T04:53:31.484Z,80.57
2019-02-27T04:55:57.565Z,78.93
2019-02-27T04:58:25.968Z,72.23
2019-02-27T05:00:58.927Z,74.30
2019-02-27T05:03:25.837Z,72.40
2019-02-27T05:05:56.568Z,72.83
2019-02-27T05:08:27.144Z,84.10
2019-02-27T05:10:55.118Z,68.50
2019-02-27T05:13:23.522Z,77.70
2019-02-27T05:15:51.946Z,82.60
2019-02-27T05:18:20.348Z,73.53
2019-02-27T05:20:48.793Z,71.93
2019-02-27T05:23:17.194Z,81.77
2019-02-27T05:25:45.624Z,80.50
2019-02-27T05:28:14.069Z,71.60
2019-02-27T05:30:44.829Z,77.30
2019-02-27T05:33:12.696Z,79.03
2019-02-27T05:35:41.108Z,67.90
2019-02-27T05:38:09.642Z,73.33
2019-02-27T05:40:38.052Z,73.33
2019-02-27T05:43:06.489Z,77.43
2019-02-27T05:45:34.912Z,71.70
2019-02-27T05:48:03.336Z,81.20
2019-02-27T05:50:34.040Z,80.07
2019-02-27T05:53:01.911Z,81.77
2019-02-27T05:55:30.342Z,73.00
2019-02-27T05:57:58.894Z,87.00
2019-02-27T06:00:27.309Z,79.00
2019-02-27T06:02:56.872Z,86.67
2019-02-27T06:05:25.430Z,71.23
2019-02-27T06:07:53.839Z,78.50
2019-02-27T06:10:23.567Z,82.37
2019-02-27T06:12:52.199Z,81.07
2019-02-27T06:15:20.637Z,70.10
2019-02-27T06:17:49.737Z,73.00
2019-02-27T06:20:18.534Z,74.93
2019-02-27T06:22:46.957Z,77.27
2019-02-27T06:25:23.381Z,75.70
2019-02-27T06:27:48.875Z,83.63
2019-02-27T06:30:19.112Z,68.77
2019-02-27T06:32:47.541Z,75.23
2019-02-27T06:35:16.297Z,84.93
2019-02-27T06:37:44.713Z,76.63
2019-02-27T06:40:18.087Z,76.23
2019-02-27T06:42:46.362Z,72.17
2019-02-27T06:45:16.701Z,74.57
2019-02-27T06:47:45.130Z,72.83
2019-02-27T06:50:16.935Z,70.10
2019-02-27T06:52:45.364Z,68.47
2019-02-27T06:55:14.807Z,70.63
2019-02-27T06:57:43.258Z,67.80
2019-02-27T07:00:14.973Z,78.13
2019-02-27T07:02:43.401Z,71.47
2019-02-27T07:05:13.596Z,72.00
2019-02-27T07:07:42.228Z,78.07
2019-02-27T07:10:19.472Z,69.73
2019-02-27T07:12:45.973Z,70.53
2019-02-27T07:15:19.684Z,73.53
2019-02-27T07:17:48.102Z,72.97
2019-02-27T07:20:17.345Z,65.53
2019-02-27T07:22:46.654Z,74.23
2019-02-27T07:25:22.157Z,73.47
2019-02-27T07:27:50.581Z,72.77
2019-02-27T07:30:20.133Z,70.93
2019-02-27T07:32:48.548Z,73.47
2019-02-27T07:35:17.223Z,90.83
2019-02-27T07:37:48.113Z,84.10
2019-02-27T07:40:20.379Z,82.87
2019-02-27T07:42:48.786Z,76.03
2019-02-27T07:45:19.695Z,88.13
2019-02-27T07:47:48.104Z,77.60
2019-02-27T07:50:18.817Z,76.03
2019-02-27T07:52:47.301Z,76.43
2019-02-27T07:55:21.922Z,96.23
2019-02-27T07:57:46.947Z,82.37
2019-02-27T08:00:17.875Z,75.53
2019-02-27T08:02:46.276Z,85.73
2019-02-27T08:05:14.741Z,81.83
2019-02-27T08:07:43.221Z,76.33
2019-02-27T08:10:22.744Z,75.37
2019-02-27T08:12:55.561Z,82.37
2019-02-27T08:15:21.669Z,91.10
2019-02-27T08:17:50.157Z,79.23
2019-02-27T08:20:21.007Z,91.97
2019-02-27T08:22:49.751Z,80.50
2019-02-27T08:25:18.960Z,89.10
2019-02-27T08:27:47.576Z,81.53
2019-02-27T08:30:21.732Z,83.93
2019-02-27T08:32:50.169Z,73.97
2019-02-27T08:35:18.593Z,73.17
2019-02-27T08:37:47.477Z,73.43
2019-02-27T08:40:16.303Z,79.20
2019-02-27T08:42:44.725Z,78.73
2019-02-27T08:45:20.962Z,80.80
2019-02-27T08:47:49.720Z,74.73
2019-02-27T08:50:19.794Z,71.33
2019-02-27T08:52:51.568Z,76.87
2019-02-27T08:55:24.068Z,50.70
2019-02-27T08:57:55.570Z,54.63
2019-02-27T09:00:27.190Z,48.67
2019-02-27T09:02:55.975Z,47.07
2019-02-27T09:05:24.606Z,46.40
2019-02-27T09:07:53.070Z,60.43
2019-02-27T09:10:26.920Z,48.87
2019-02-27T09:13:04.432Z,52.03
2019-02-27T09:15:24.229Z,43.20
2019-02-27T09:17:55.484Z,46.33
2019-02-27T09:20:23.912Z,41.87
2019-02-27T09:22:52.352Z,42.83
2019-02-27T09:25:23.702Z,41.33
2019-02-27T09:27:50.947Z,47.83
2019-02-27T09:30:28.622Z,54.63
2019-02-27T09:32:53.511Z,40.13
2019-02-27T09:35:21.940Z,41.57
2019-02-27T09:37:51.366Z,47.90
2019-02-27T09:40:25.177Z,44.23
2019-02-27T09:42:54.049Z,50.27
2019-02-27T09:45:34.887Z,61.23
2019-02-27T09:48:04.123Z,50.23
2019-02-27T09:50:47.814Z,50.50
2019-02-27T09:53:15.376Z,42.20
2019-02-27T09:55:44.117Z,50.40
2019-02-27T09:58:13.125Z,41.33
2019-02-27T10:00:59.210Z,45.30
2019-02-27T10:03:26.642Z,55.17
2019-02-27T10:05:56.206Z,61.57
2019-02-27T10:08:25.524Z,50.10
2019-02-27T10:10:54.814Z,55.50
2019-02-27T10:13:23.247Z,51.60
2019-02-27T10:15:51.789Z,58.40
2019-02-27T10:18:22.064Z,49.37
2019-02-27T10:20:50.416Z,52.03
2019-02-27T10:23:18.842Z,48.60
2019-02-27T10:25:47.320Z,43.20
2019-02-27T10:28:15.769Z,47.40
2019-02-27T10:30:46.881Z,46.10
2019-02-27T10:33:14.501Z,50.43
2019-02-27T10:35:42.943Z,51.67
2019-02-27T10:38:11.376Z,48.20
2019-02-27T10:40:39.835Z,64.27
2019-02-27T10:43:08.417Z,45.40
2019-02-27T10:45:37.185Z,43.53
2019-02-27T10:48:05.625Z,48.20
2019-02-27T10:50:35.484Z,50.87
2019-02-27T10:53:04.480Z,42.10
2019-02-27T10:55:33.357Z,43.27
2019-02-27T10:58:01.781Z,52.37
2019-02-27T11:00:32.912Z,45.87
2019-02-27T11:03:02.903Z,41.20
2019-02-27T11:05:36.077Z,44.40
2019-02-27T11:08:04.529Z,48.87
2019-02-27T11:10:32.966Z,59.50
2019-02-27T11:13:05.626Z,55.80
2019-02-27T11:15:31.593Z,46.27
2019-02-27T11:18:04.443Z,45.40
2019-02-27T11:20:30.179Z,47.03
2019-02-27T11:22:58.613Z,43.93
2019-02-27T11:25:31.137Z,43.00
2019-02-27T11:27:59.620Z,42.83
2019-02-27T11:30:37.054Z,35.17
2019-02-27T11:33:05.885Z,36.80
2019-02-27T11:35:34.362Z,36.67
2019-02-27T11:38:02.873Z,40.93
2019-02-27T11:40:31.331Z,44.67
2019-02-27T11:43:01.097Z,42.33
2019-02-27T11:45:30.045Z,43.47
2019-02-27T11:47:58.790Z,45.17
2019-02-27T11:50:27.248Z,38.20
2019-02-27T11:52:55.892Z,39.33
2019-02-27T11:55:24.662Z,52.20
2019-02-27T11:57:53.537Z,48.50
2019-02-27T12:00:29.891Z,43.97
2019-02-27T12:02:58.974Z,40.43
2019-02-27T12:05:33.821Z,49.53
2019-02-27T12:07:58.435Z,40.20
2019-02-27T12:10:31.686Z,39.87
2019-02-27T12:13:01.377Z,43.80
2019-02-27T12:15:30.470Z,37.27
2019-02-27T12:18:00.562Z,39.70
2019-02-27T12:20:29.484Z,46.20
2019-02-27T12:22:58.294Z,42.23
2019-02-27T12:25:29.715Z,39.27
2019-02-27T12:27:57.441Z,42.77
2019-02-27T12:30:28.271Z,40.10
2019-02-27T12:32:57.010Z,35.37
2019-02-27T12:35:31.795Z,49.13
2019-02-27T12:38:00.509Z,41.20
2019-02-27T12:40:28.957Z,39.83
2019-02-27T12:42:57.409Z,40.87
2019-02-27T12:45:30.041Z,44.23
2019-02-27T12:47:58.996Z,35.63
2019-02-27T12:50:31.334Z,33.40
2019-02-27T12:53:00.326Z,39.03
2019-02-27T12:55:29.028Z,34.53
2019-02-27T12:57:57.531Z,34.97
2019-02-27T13:00:36.110Z,39.83
2019-02-27T13:03:08.373Z,35.87
2019-02-27T13:05:35.676Z,38.37
2019-02-27T13:08:04.112Z,36.70
2019-02-27T13:10:34.002Z,39.67
2019-02-27T13:13:02.713Z,34.40
2019-02-27T13:15:31.150Z,30.47
2019-02-27T13:17:59.590Z,34.20
2019-02-27T13:20:32.668Z,38.80
2019-02-27T13:23:03.936Z,33.37
2019-02-27T13:25:31.344Z,34.00
2019-02-27T13:28:00.101Z,32.47
2019-02-27T13:30:29.267Z,32.30
2019-02-27T13:33:00.650Z,28.53
2019-02-27T13:35:28.812Z,31.83
2019-02-27T13:37:58.092Z,29.87
2019-02-27T13:40:28.287Z,33.40
2019-02-27T13:42:57.095Z,26.33
2019-02-27T13:45:27.252Z,27.07
2019-02-27T13:47:55.701Z,33.83
2019-02-27T13:50:26.673Z,26.07
2019-02-27T13:52:54.340Z,27.87
2019-02-27T13:55:23.824Z,29.70
2019-02-27T13:57:52.256Z,25.30
2019-02-27T14:00:25.595Z,29.20
2019-02-27T14:02:53.604Z,29.60
2019-02-27T14:05:22.313Z,26.03
2019-02-27T14:07:50.744Z,25.83
2019-02-27T14:10:23.903Z,33.40
2019-02-27T14:12:52.604Z,39.10
2019-02-27T14:15:26.736Z,27.67
2019-02-27T14:17:55.836Z,38.70
2019-02-27T14:20:26.901Z,30.23
2019-02-27T14:22:55.028Z,31.07
2019-02-27T14:25:32.920Z,24.70
2019-02-27T14:28:00.977Z,26.53
2019-02-27T14:30:41.991Z,28.90
2019-02-27T14:33:11.094Z,43.20
2019-02-27T14:35:40.174Z,30.27
2019-02-27T14:38:08.641Z,30.87
2019-02-27T14:40:40.941Z,33.87
2019-02-27T14:43:07.838Z,30.50
2019-02-27T14:45:39.564Z,32.03
2019-02-27T14:48:06.503Z,28.23
2019-02-27T14:50:36.501Z,30.67
2019-02-27T14:53:05.116Z,28.87
2019-02-27T14:55:35.935Z,31.47
2019-02-27T14:58:03.712Z,32.33
2019-02-27T15:00:39.638Z,28.17
2019-02-27T15:03:07.364Z,37.37
2019-02-27T15:05:36.743Z,31.17
2019-02-27T15:08:05.853Z,30.97
2019-02-27T15:10:34.301Z,30.93
2019-02-27T15:13:02.756Z,36.63
2019-02-27T15:15:32.439Z,35.50
2019-02-27T15:18:01.182Z,35.30
2019-02-27T15:20:30.396Z,29.60
2019-02-27T15:22:59.092Z,39.70
2019-02-27T15:25:27.952Z,39.80
2019-02-27T15:27:58.860Z,29.27
2019-02-27T15:30:30.081Z,39.07
2019-02-27T15:33:03.902Z,50.43
2019-02-27T15:35:28.941Z,32.07
2019-02-27T15:37:57.645Z,33.23
2019-02-27T15:40:29.543Z,33.53
2019-02-27T15:42:58.318Z,34.70
2019-02-27T15:45:27.706Z,34.53
2019-02-27T15:47:56.460Z,34.40
2019-02-27T15:50:35.016Z,37.90
2019-02-27T15:53:03.451Z,41.13
2019-02-27T15:55:34.286Z,34.50
2019-02-27T15:58:02.148Z,37.73
2019-02-27T16:00:30.663Z,32.47
2019-02-27T16:02:59.132Z,30.07
2019-02-27T16:05:31.432Z,37.47
2019-02-27T16:07:57.725Z,37.43
2019-02-27T16:10:29.621Z,39.33
2019-02-27T16:13:00.970Z,34.53
2019-02-27T16:15:28.214Z,35.50
2019-02-27T16:17:56.689Z,38.13
2019-02-27T16:20:27.146Z,36.83
2019-02-27T16:22:55.582Z,36.97
2019-02-27T16:25:25.702Z,33.43
2019-02-27T16:27:54.170Z,32.07
2019-02-27T16:30:32.515Z,34.53
2019-02-27T16:33:00.160Z,38.20
2019-02-27T16:35:28.886Z,33.67
2019-02-27T16:37:57.955Z,36.00
2019-02-27T16:40:27.899Z,32.53
2019-02-27T16:42:56.628Z,33.40
2019-02-27T16:45:32.266Z,35.23
2019-02-27T16:47:58.445Z,34.40
2019-02-27T16:50:28.310Z,33.70
2019-02-27T16:52:56.984Z,32.33
2019-02-27T16:55:26.801Z,37.93
2019-02-27T16:57:57.534Z,38.43
2019-02-27T17:00:30.633Z,31.70
2019-02-27T17:02:59.402Z,31.77
2019-02-27T17:05:27.845Z,34.60
2019-02-27T17:08:00.232Z,34.37
2019-02-27T17:10:37.675Z,35.23
2019-02-27T17:13:06.373Z,40.00
2019-02-27T17:15:36.149Z,35.80
2019-02-27T17:18:05.226Z,29.60
2019-02-27T17:20:33.661Z,32.77
2019-02-27T17:23:06.825Z,31.50
2019-02-27T17:25:33.361Z,33.70
2019-02-27T17:28:01.944Z,32.87
2019-02-27T17:30:36.630Z,36.93
2019-02-27T17:33:04.084Z,32.60
2019-02-27T17:35:34.349Z,33.10
2019-02-27T17:38:03.636Z,39.10
2019-02-27T17:40:36.207Z,40.07
2019-02-27T17:43:02.560Z,34.33
2019-02-27T17:45:31.006Z,33.47
2019-02-27T17:47:59.453Z,34.17
2019-02-27T17:50:30.899Z,45.50
2019-02-27T17:52:58.040Z,31.83
2019-02-27T17:55:27.975Z,34.23
2019-02-27T17:57:58.450Z,36.50
2019-02-27T18:00:32.633Z,38.40
2019-02-27T18:03:01.303Z,35.80
2019-02-27T18:05:29.801Z,32.40
2019-02-27T18:07:58.638Z,31.60
2019-02-27T18:10:27.112Z,35.90
2019-02-27T18:12:55.593Z,34.13
2019-02-27T18:15:24.969Z,40.33
2019-02-27T18:17:53.425Z,41.83
2019-02-27T18:20:25.568Z,40.23
2019-02-27T18:22:52.384Z,30.97
2019-02-27T18:25:20.910Z,30.33
2019-02-27T18:27:49.650Z,33.93
2019-02-27T18:30:20.166Z,40.80
2019-02-27T18:32:49.432Z,30.20
2019-02-27T18:35:19.434Z,36.00
2019-02-27T18:37:53.267Z,36.90
2019-02-27T18:40:19.793Z,35.10
2019-02-27T18:42:48.238Z,41.80
2019-02-27T18:45:25.837Z,35.73
2019-02-27T18:47:54.254Z,36.30
2019-02-27T18:50:24.871Z,37.57
2019-02-27T18:52:52.916Z,45.93
2019-02-27T18:55:21.368Z,37.47
2019-02-27T18:57:49.828Z,37.07
2019-02-27T19:00:21.629Z,44.10
2019-02-27T19:02:53.585Z,36.40
2019-02-27T19:05:22.385Z,37.13
2019-02-27T19:07:53.644Z,32.60
2019-02-27T19:10:21.651Z,35.27
2019-02-27T19:12:50.102Z,32.93
2019-02-27T19:15:22.144Z,36.40
2019-02-27T19:17:51.309Z,40.57
2019-02-27T19:20:31.353Z,36.90
2019-02-27T19:23:00.451Z,33.80
2019-02-27T19:25:34.118Z,37.33
2019-02-27T19:27:59.350Z,42.23
2019-02-27T19:30:28.073Z,35.70
2019-02-27T19:33:01.471Z,36.67
2019-02-27T19:35:26.996Z,54.30
2019-02-27T19:37:55.450Z,47.13
2019-02-27T19:40:29.963Z,43.33
2019-02-27T19:42:59.105Z,34.83
2019-02-27T19:45:28.105Z,40.67
2019-02-27T19:47:56.558Z,38.93
2019-02-27T19:50:25.558Z,40.80
2019-02-27T19:52:54.131Z,37.83
2019-02-27T19:55:26.214Z,41.67
2019-02-27T19:57:52.845Z,41.93
2019-02-27T20:00:23.674Z,40.33
2019-02-27T20:02:55.248Z,46.93
2019-02-27T20:05:23.025Z,45.33
2019-02-27T20:07:52.012Z,41.20
2019-02-27T20:10:20.457Z,44.93
2019-02-27T20:12:52.771Z,46.13
2019-02-27T20:15:20.903Z,41.47
2019-02-27T20:17:49.860Z,37.77
2019-02-27T20:20:22.893Z,46.43
2019-02-27T20:22:53.675Z,40.60
2019-02-27T20:25:28.587Z,60.43
2019-02-27T20:27:58.030Z,37.20
2019-02-27T20:30:27.741Z,46.57
2019-02-27T20:32:56.206Z,42.40
2019-02-27T20:35:24.686Z,41.37
2019-02-27T20:37:53.222Z,40.37
2019-02-27T20:40:22.303Z,38.97
2019-02-27T20:42:54.692Z,45.90
2019-02-27T20:45:26.746Z,40.60
2019-02-27T20:48:00.010Z,47.80
2019-02-27T20:50:34.925Z,37.90
2019-02-27T20:53:01.985Z,46.07
2019-02-27T20:55:31.721Z,42.87
2019-02-27T20:58:00.718Z,52.10
2019-02-27T21:00:29.165Z,36.63
2019-02-27T21:02:59.926Z,42.47
2019-02-27T21:05:28.389Z,37.93
2019-02-27T21:08:00.904Z,41.80
2019-02-27T21:10:29.192Z,44.13
2019-02-27T21:12:57.681Z,45.60
2019-02-27T21:15:29.269Z,41.63
2019-02-27T21:17:58.499Z,57.03
2019-02-27T21:20:27.505Z,41.03
2019-02-27T21:22:55.941Z,40.60
2019-02-27T21:25:24.697Z,40.10
2019-02-27T21:27:53.439Z,44.57
2019-02-27T21:30:23.502Z,43.13
2019-02-27T21:32:51.940Z,40.27
2019-02-27T21:35:20.719Z,50.57
2019-02-27T21:37:52.561Z,52.63
2019-02-27T21:40:21.046Z,43.57
2019-02-27T21:42:50.932Z,45.10
2019-02-27T21:45:21.495Z,43.10
2019-02-27T21:48:07.214Z,42.93
2019-02-27T21:50:39.872Z,44.17
2019-02-27T21:53:08.128Z,42.07
2019-02-27T21:55:36.568Z,48.83
2019-02-27T21:58:05.012Z,43.40
2019-02-27T22:00:33.531Z,42.67
2019-02-27T22:03:04.899Z,39.30
2019-02-27T22:05:32.173Z,37.70
2019-02-27T22:08:00.714Z,40.23
2019-02-27T22:10:29.208Z,51.43
2019-02-27T22:12:57.645Z,40.73
2019-02-27T22:15:30.022Z,42.73
2019-02-27T22:17:58.671Z,46.30
2019-02-27T22:20:27.208Z,46.33
2019-02-27T22:22:55.641Z,44.10
2019-02-27T22:25:24.181Z,45.13
2019-02-27T22:27:53.182Z,44.77
2019-02-27T22:30:22.394Z,43.83
2019-02-27T22:32:50.912Z,55.93
2019-02-27T22:35:19.542Z,38.47
2019-02-27T22:37:51.042Z,48.60
2019-02-27T22:40:19.966Z,41.37
2019-02-27T22:42:49.244Z,43.20
2019-02-27T22:45:19.078Z,46.90
2019-02-27T22:47:48.652Z,41.37
2019-02-27T22:50:18.337Z,41.10
2019-02-27T22:52:46.771Z,40.40
2019-02-27T22:55:15.229Z,49.00
2019-02-27T22:57:43.659Z,37.60
2019-02-27T23:00:44.087Z,45.33
2019-02-27T23:03:12.722Z,48.40
2019-02-27T23:05:41.166Z,37.70
2019-02-27T23:08:09.592Z,50.50
2019-02-27T23:10:38.118Z,41.97
2019-02-27T23:13:12.489Z,42.37
2019-02-27T23:15:39.229Z,39.87
2019-02-27T23:18:07.684Z,45.60
2019-02-27T23:20:36.401Z,39.90
2019-02-27T23:23:05.101Z,38.83
2019-02-27T23:25:33.543Z,43.03
2019-02-27T23:28:02.131Z,42.03
2019-02-27T23:30:30.693Z,41.80
2019-02-27T23:33:02.005Z,42.97
2019-02-27T23:35:29.445Z,55.60
2019-02-27T23:38:02.957Z,46.03
2019-02-27T23:40:28.058Z,45.00
2019-02-27T23:43:02.419Z,53.87
2019-02-27T23:45:26.829Z,42.40
2019-02-27T23:47:55.272Z,45.20
2019-02-27T23:50:23.701Z,48.23
2019-02-27T23:52:53.194Z,45.73
2019-02-27T23:55:22.468Z,50.03
2019-02-27T23:57:50.928Z,46.30
